createdAt,value
2023-03-22T00:01:25.676Z,20.63
2023-03-22T00:03:53.213Z,20.08
2023-03-22T00:06:20.741Z,22.98
2023-03-22T00:08:51.326Z,18.67
2023-03-22T00:11:19.914Z,19.90
2023-03-22T00:13:47.390Z,21.40
2023-03-22T00:16:15.484Z,17.27
2023-03-22T00:18:42.697Z,19.75
2023-03-22T00:21:15.565Z,19.80
2023-03-22T00:23:42.962Z,19.27
2023-03-22T00:26:11.680Z,19.35
2023-03-22T00:28:39.003Z,18.27
2023-03-22T00:31:06.957Z,21.92
2023-03-22T00:33:37.017Z,22.67
2023-03-22T00:36:07.756Z,22.10
2023-03-22T00:38:44.888Z,17.50
2023-03-22T00:41:17.962Z,19.23
2023-03-22T00:43:46.219Z,18.35
2023-03-22T00:46:14.881Z,17.65
2023-03-22T00:48:42.729Z,21.13
2023-03-22T00:51:10.888Z,19.60
2023-03-22T00:53:41.908Z,19.33
2023-03-22T00:56:10.075Z,19.25
2023-03-22T00:58:37.130Z,17.25
2023-03-22T01:01:04.262Z,19.23
2023-03-22T01:03:31.487Z,18.48
2023-03-22T01:05:58.400Z,18.23
2023-03-22T01:08:25.632Z,21.13
2023-03-22T01:10:52.821Z,17.08
2023-03-22T01:13:19.817Z,17.00
2023-03-22T01:15:50.154Z,16.67
2023-03-22T01:18:17.371Z,19.85
2023-03-22T01:20:44.371Z,17.38
2023-03-22T01:23:11.293Z,17.67
2023-03-22T01:25:38.320Z,19.63
2023-03-22T01:28:06.988Z,19.20
2023-03-22T01:30:34.641Z,20.17
2023-03-22T01:33:01.689Z,15.80
2023-03-22T01:35:28.818Z,19.83
2023-03-22T01:37:56.076Z,16.30
2023-03-22T01:40:23.039Z,19.38
2023-03-22T01:42:50.099Z,18.85
2023-03-22T01:45:23.148Z,16.80
2023-03-22T01:47:58.316Z,16.98
2023-03-22T01:50:26.096Z,19.30
2023-03-22T01:52:55.653Z,19.50
2023-03-22T01:55:26.284Z,21.05
2023-03-22T01:57:54.226Z,18.40
2023-03-22T02:00:22.710Z,22.00
2023-03-22T02:02:52.895Z,18.00
2023-03-22T02:05:22.531Z,22.60
2023-03-22T02:07:50.784Z,19.73
2023-03-22T02:10:22.274Z,21.55
2023-03-22T02:13:14.089Z,20.55
2023-03-22T02:16:09.272Z,20.65
2023-03-22T02:18:42.159Z,18.70
2023-03-22T02:21:15.148Z,19.58
2023-03-22T02:24:00.153Z,18.48
2023-03-22T02:26:49.795Z,17.58
2023-03-22T02:29:41.952Z,20.52
2023-03-22T02:32:29.737Z,21.40
2023-03-22T02:35:27.374Z,18.58
2023-03-22T02:38:15.775Z,20.77
2023-03-22T02:41:10.996Z,22.92
2023-03-22T02:44:05.885Z,20.13
2023-03-22T02:46:32.784Z,20.20
2023-03-22T02:49:32.253Z,19.50
2023-03-22T02:52:06.751Z,19.02
2023-03-22T02:54:45.344Z,18.85
2023-03-22T02:57:21.043Z,20.58
2023-03-22T02:59:50.365Z,19.55
2023-03-22T03:02:19.750Z,20.13
2023-03-22T03:04:52.060Z,19.27
2023-03-22T03:07:23.085Z,20.88
2023-03-22T03:13:37.284Z,21.42
2023-03-22T03:16:08.082Z,21.15
2023-03-22T03:18:59.173Z,20.38
2023-03-22T03:21:49.080Z,22.13
2023-03-22T03:24:33.793Z,20.95
2023-03-22T03:27:06.684Z,19.95
2023-03-22T03:29:45.059Z,22.73
2023-03-22T03:32:48.049Z,17.40
2023-03-22T03:35:25.505Z,17.90
2023-03-22T03:37:57.772Z,15.75
2023-03-22T03:40:32.620Z,18.02
2023-03-22T03:43:03.821Z,17.33
2023-03-22T03:45:31.099Z,16.83
2023-03-22T03:48:01.686Z,18.27
2023-03-22T03:50:29.827Z,19.33
2023-03-22T03:52:56.974Z,17.00
2023-03-22T03:55:24.659Z,18.42
2023-03-22T03:57:51.725Z,18.23
2023-03-22T04:00:19.817Z,16.23
2023-03-22T04:02:46.791Z,18.40
2023-03-22T04:05:14.348Z,17.48
2023-03-22T04:07:41.763Z,16.60
2023-03-22T04:10:09.275Z,16.67
2023-03-22T04:12:36.404Z,18.70
2023-03-22T04:15:03.522Z,18.00
2023-03-22T04:17:32.270Z,19.02
2023-03-22T04:19:59.244Z,19.80
2023-03-22T04:22:26.803Z,18.48
2023-03-22T04:24:53.848Z,18.95
2023-03-22T04:27:22.738Z,17.95
2023-03-22T04:29:51.229Z,21.75
2023-03-22T04:32:19.197Z,17.85
2023-03-22T04:34:46.649Z,21.10
2023-03-22T04:37:14.906Z,18.85
2023-03-22T04:39:42.609Z,20.48
2023-03-22T04:42:09.976Z,18.77
2023-03-22T04:44:36.817Z,21.58
2023-03-22T04:47:04.046Z,22.45
2023-03-22T04:49:31.541Z,23.40
2023-03-22T04:51:58.516Z,21.30
2023-03-22T04:54:25.807Z,22.33
2023-03-22T04:56:52.973Z,22.65
2023-03-22T04:59:20.651Z,22.48
2023-03-22T05:01:48.560Z,24.30
2023-03-22T05:04:19.697Z,26.25
2023-03-22T05:06:46.760Z,27.55
2023-03-22T05:09:14.569Z,33.78
2023-03-22T05:11:42.073Z,27.35
2023-03-22T05:14:09.769Z,29.23
2023-03-22T05:16:37.157Z,32.90
2023-03-22T05:19:04.187Z,32.67
2023-03-22T05:21:37.055Z,32.78
2023-03-22T05:24:04.378Z,38.97
2023-03-22T05:26:31.336Z,39.00
2023-03-22T05:28:58.741Z,40.78
2023-03-22T05:31:28.577Z,42.22
2023-03-22T05:33:55.787Z,40.83
2023-03-22T05:36:23.876Z,39.38
2023-03-22T05:38:50.831Z,35.45
2023-03-22T05:41:17.649Z,32.20
2023-03-22T05:43:44.616Z,28.33
2023-03-22T05:46:12.342Z,27.45
2023-03-22T05:52:19.913Z,21.48
2023-03-22T05:54:46.841Z,28.52
2023-03-22T05:57:13.863Z,24.38
2023-03-22T05:59:40.988Z,26.15
2023-03-22T06:02:07.809Z,28.67
2023-03-22T06:04:34.776Z,26.90
2023-03-22T06:07:01.624Z,29.05
2023-03-22T06:09:28.509Z,27.10
2023-03-22T06:11:55.360Z,29.23
2023-03-22T06:14:24.013Z,33.67
2023-03-22T06:16:51.240Z,36.95
2023-03-22T06:23:18.298Z,29.92
2023-03-22T06:25:45.388Z,33.60
2023-03-22T06:28:12.214Z,35.55
2023-03-22T06:30:39.652Z,31.58
2023-03-22T06:33:06.774Z,32.55
2023-03-22T06:35:34.630Z,34.10
2023-03-22T06:41:49.600Z,32.90
2023-03-22T06:44:16.997Z,34.97
2023-03-22T06:50:31.330Z,32.55
2023-03-22T06:56:38.752Z,33.72
2023-03-22T06:59:05.682Z,39.13
2023-03-22T07:01:32.606Z,34.15
2023-03-22T07:03:59.735Z,37.88
2023-03-22T07:06:26.731Z,32.70
2023-03-22T07:12:34.854Z,32.08
2023-03-22T07:15:02.573Z,31.75
2023-03-22T07:17:29.662Z,31.23
2023-03-22T07:23:58.283Z,30.60
2023-03-22T07:30:08.976Z,35.75
2023-03-22T07:32:36.447Z,33.50
2023-03-22T07:38:44.300Z,33.47
2023-03-22T07:41:11.200Z,32.45
2023-03-22T07:43:52.393Z,33.85
2023-03-22T07:46:21.125Z,34.53
2023-03-22T07:48:48.094Z,39.15
2023-03-22T07:51:15.420Z,35.97
2023-03-22T07:53:42.380Z,34.15
2023-03-22T07:56:09.818Z,37.83
2023-03-22T07:58:36.996Z,32.78
2023-03-22T08:01:05.735Z,38.47
2023-03-22T08:03:32.918Z,41.60
2023-03-22T08:06:02.860Z,40.67
2023-03-22T08:08:29.913Z,38.55
2023-03-22T08:10:56.810Z,38.03
2023-03-22T08:13:23.950Z,37.90
2023-03-22T08:15:51.219Z,41.55
2023-03-22T08:18:18.178Z,41.20
2023-03-22T08:20:47.817Z,37.35
2023-03-22T08:23:16.434Z,38.45
2023-03-22T08:25:43.572Z,38.10
2023-03-22T08:28:10.827Z,35.55
2023-03-22T08:30:38.936Z,39.03
2023-03-22T08:33:06.657Z,36.13
2023-03-22T08:35:34.253Z,41.67
2023-03-22T08:38:01.321Z,40.78
2023-03-22T08:40:28.353Z,44.53
2023-03-22T08:42:55.524Z,45.28
2023-03-22T08:45:22.440Z,44.03
2023-03-22T08:47:49.392Z,45.33
2023-03-22T08:50:16.391Z,48.28
2023-03-22T08:52:43.224Z,45.78
2023-03-22T08:58:57.144Z,43.03
2023-03-22T09:01:25.745Z,44.78
2023-03-22T09:03:52.768Z,46.28
2023-03-22T09:06:19.663Z,44.13
2023-03-22T09:08:48.247Z,41.50
2023-03-22T09:11:17.637Z,43.00
2023-03-22T09:13:44.860Z,42.85
2023-03-22T09:16:12.153Z,42.58
2023-03-22T09:18:39.973Z,39.30
2023-03-22T09:21:08.637Z,38.95
2023-03-22T09:23:37.887Z,39.72
2023-03-22T09:26:07.444Z,38.63
2023-03-22T09:28:36.311Z,36.97
2023-03-22T09:31:06.791Z,42.25
2023-03-22T09:33:35.632Z,39.28
2023-03-22T09:36:03.149Z,42.60
2023-03-22T09:38:32.587Z,39.47
2023-03-22T09:41:05.675Z,40.97
2023-03-22T09:43:43.782Z,39.43
2023-03-22T09:46:17.104Z,39.83
2023-03-22T09:48:48.408Z,37.55
2023-03-22T09:51:40.526Z,44.75
2023-03-22T09:54:21.788Z,42.08
2023-03-22T09:57:27.587Z,40.33
2023-03-22T10:00:35.684Z,40.15
2023-03-22T10:03:32.766Z,40.95
2023-03-22T10:06:04.325Z,43.63
2023-03-22T10:08:44.598Z,40.78
2023-03-22T10:11:19.440Z,39.25
2023-03-22T10:13:59.773Z,40.17
2023-03-22T10:16:33.193Z,40.33
2023-03-22T10:19:17.681Z,41.33
2023-03-22T10:21:46.744Z,40.78
2023-03-22T10:24:20.384Z,44.03
2023-03-22T10:26:48.973Z,41.60
2023-03-22T10:29:23.569Z,40.40
2023-03-22T10:31:50.783Z,42.17
2023-03-22T10:34:33.848Z,43.10
2023-03-22T10:37:04.249Z,38.97
2023-03-22T10:39:46.523Z,40.53
2023-03-22T10:42:17.953Z,45.95
2023-03-22T10:44:50.650Z,48.20
2023-03-22T10:47:21.521Z,48.47
2023-03-22T10:49:54.749Z,49.35
2023-03-22T10:52:31.276Z,45.70
2023-03-22T10:55:02.994Z,50.10
2023-03-22T10:57:31.205Z,51.53
2023-03-22T10:59:58.415Z,49.70
2023-03-22T11:02:31.217Z,51.55
2023-03-22T11:05:01.200Z,51.95
2023-03-22T11:07:45.449Z,43.75
2023-03-22T11:13:09.788Z,48.60
2023-03-22T11:15:40.868Z,49.65
2023-03-22T11:18:18.173Z,42.28
2023-03-22T11:21:00.650Z,42.67
2023-03-22T11:23:32.284Z,38.13
2023-03-22T11:26:06.300Z,42.13
2023-03-22T11:28:42.100Z,36.88
2023-03-22T11:31:09.487Z,37.33
2023-03-22T11:33:37.712Z,35.85
2023-03-22T11:36:16.976Z,35.97
2023-03-22T11:38:46.356Z,32.78
2023-03-22T11:41:45.319Z,33.03
2023-03-22T11:47:53.703Z,33.15
2023-03-22T11:54:21.925Z,31.70
2023-03-22T11:56:50.398Z,31.20
2023-03-22T11:59:17.527Z,26.73
2023-03-22T12:01:51.708Z,26.10
2023-03-22T12:04:24.876Z,27.10
2023-03-22T12:06:56.501Z,27.17
2023-03-22T12:09:41.551Z,24.15
2023-03-22T12:16:02.271Z,20.25
2023-03-22T12:18:29.613Z,20.35
2023-03-22T12:21:01.267Z,16.90
2023-03-22T12:23:36.704Z,18.73
2023-03-22T12:29:57.135Z,18.98
2023-03-22T12:32:39.191Z,15.38
2023-03-22T12:35:17.591Z,20.90
2023-03-22T12:37:50.807Z,15.50
2023-03-22T12:40:23.514Z,16.73
2023-03-22T12:43:05.628Z,17.52
2023-03-22T12:45:39.751Z,17.98
2023-03-22T12:48:07.042Z,16.90
2023-03-22T12:50:46.299Z,14.77
2023-03-22T12:53:18.529Z,16.77
2023-03-22T12:55:47.592Z,15.70
2023-03-22T12:58:29.809Z,18.45
2023-03-22T13:01:20.086Z,18.00
2023-03-22T13:03:56.275Z,18.42
2023-03-22T13:06:58.060Z,15.13
2023-03-22T13:09:28.644Z,14.63
2023-03-22T13:15:42.115Z,15.93
2023-03-22T13:18:38.032Z,15.65
2023-03-22T13:25:17.489Z,14.63
2023-03-22T13:27:54.153Z,18.65
2023-03-22T13:30:26.446Z,13.10
2023-03-22T13:33:04.225Z,19.08
2023-03-22T13:39:15.930Z,13.95
2023-03-22T13:41:51.865Z,19.13
2023-03-22T13:44:31.727Z,12.25
2023-03-22T13:47:01.552Z,14.32
2023-03-22T13:53:30.402Z,11.95
2023-03-22T14:00:14.952Z,13.25
2023-03-22T14:02:44.040Z,13.90
2023-03-22T14:05:19.137Z,12.57
2023-03-22T14:07:58.224Z,11.05
2023-03-22T14:10:40.247Z,11.77
2023-03-22T14:13:26.365Z,12.13
2023-03-22T14:16:03.192Z,15.48
2023-03-22T14:18:37.379Z,15.93
2023-03-22T14:21:08.362Z,14.85
